This is the latest recevied weather packets stored in our database for station/object JA1RBY-13. If no packets are shown the sender has not sent any weather packets the latest 10 day(s).
| Time | Temp. | Humidity | Pressure | Rain* | Wind** | Luminosity | Snow |
|---|---|---|---|---|---|---|---|
| 1777272309 | 17.22° C | 69% | 1006.1 hPa | 1.27 mm | - | - | - |
| 1777271410 | 18.33° C | 65% | 1005.7 hPa | 0.51 mm | - | - | - |
| 1777270509 | 19.44° C | 62% | 1005.2 hPa | 0 mm | - | - | - |
| 1777269610 | 20° C | 60% | 1004.8 hPa | 0 mm | - | - | - |
| 1777268710 | 20.56° C | 56% | 1004.5 hPa | 0 mm | - | - | - |
| 1777267810 | 21.11° C | 55% | 1004.4 hPa | 0 mm | - | - | - |
| 1777266908 | 21.11° C | 54% | 1004.3 hPa | 0 mm | - | - | - |
| 1777266008 | 21.11° C | 54% | 1004.4 hPa | 0 mm | - | - | - |
| 1777265108 | 21.67° C | 53% | 1004.3 hPa | 0 mm | - | - | - |
| 1777264208 | 21.67° C | 53% | 1004.4 hPa | 0 mm | - | - | - |
| 1777263310 | 22.22° C | 52% | 1004.3 hPa | 0 mm | - | - | - |
| 1777262410 | 22.78° C | 50% | 1004.2 hPa | 0 mm | - | - | - |
| 1777261510 | 22.78° C | 50% | 1004.4 hPa | 0 mm | - | - | - |
| 1777260609 | 21.67° C | 52% | 1004.5 hPa | 0 mm | - | - | - |
| 1777259708 | 21.67° C | 51% | 1004.6 hPa | 0 mm | - | - | - |
| 1777258810 | 22.22° C | 52% | 1004.5 hPa | 0 mm | - | - | - |
| 1777257910 | 22.78° C | 52% | 1004.6 hPa | 0 mm | - | - | - |
| 1777257009 | 21.11° C | 55% | 1004.7 hPa | 0 mm | - | - | - |
| 1777256109 | 21.11° C | 57% | 1004.8 hPa | 0 mm | - | - | - |
| 1777255209 | 20.56° C | 60% | 1004.9 hPa | 0 mm | - | - | - |
| 1777254309 | 19.44° C | 62% | 1004.9 hPa | 0 mm | - | - | - |
| 1777253409 | 18.33° C | 65% | 1004.9 hPa | 0 mm | - | - | - |
| 1777252509 | 16.11° C | 74% | 1005.3 hPa | 0.25 mm | - | - | - |
| 1777251609 | 15° C | 79% | 1005 hPa | 0.51 mm | - | - | - |
| 1777250709 | 14.44° C | 80% | 1005.2 hPa | 1.27 mm | - | - | - |
* Rain latest hour (hover to see other rain measurements)
** Current wind speed in m/s (hover to see current wind gust speed)